createdAt,value
2019-04-04T00:00:23.557Z,85.06
2019-04-04T00:02:54.212Z,85.53
2019-04-04T00:05:26.204Z,86.42
2019-04-04T00:07:58.113Z,87.27
2019-04-04T00:10:29.341Z,87.86
2019-04-04T00:13:00.181Z,88.82
2019-04-04T00:15:30.765Z,89.85
2019-04-04T00:18:01.317Z,90.38
2019-04-04T00:20:32.403Z,90.78
2019-04-04T00:23:02.898Z,91.27
2019-04-04T00:25:33.459Z,91.54
2019-04-04T00:28:03.967Z,91.91
2019-04-04T00:30:34.808Z,91.51
2019-04-04T00:33:05.342Z,91.85
2019-04-04T00:35:35.919Z,92.01
2019-04-04T00:38:07.072Z,92.20
2019-04-04T00:40:38.144Z,91.83
2019-04-04T00:43:08.671Z,91.53
2019-04-04T00:45:39.180Z,91.67
2019-04-04T00:48:09.669Z,91.64
2019-04-04T00:50:40.253Z,91.63
2019-04-04T00:53:11.805Z,91.56
2019-04-04T00:55:42.918Z,91.66
2019-04-04T00:58:13.400Z,92.07
2019-04-04T01:00:44.003Z,92.13
2019-04-04T01:03:14.511Z,92.14
2019-04-04T01:05:45.055Z,92.13
2019-04-04T01:08:15.613Z,92.19
2019-04-04T01:10:46.294Z,92.33
2019-04-04T01:13:18.613Z,92.23
2019-04-04T01:15:49.137Z,92.48
2019-04-04T01:18:19.677Z,92.66
2019-04-04T01:20:50.641Z,92.43
2019-04-04T01:23:22.069Z,92.57
2019-04-04T01:25:52.565Z,93.00
2019-04-04T01:28:23.128Z,93.22
2019-04-04T01:30:53.646Z,93.44
2019-04-04T01:33:24.146Z,93.77
2019-04-04T01:35:54.941Z,94.06
2019-04-04T01:38:27.088Z,94.26
2019-04-04T01:40:57.699Z,94.39
2019-04-04T01:43:28.202Z,94.76
2019-04-04T01:45:58.774Z,94.91
2019-04-04T01:48:29.294Z,94.82
2019-04-04T01:50:59.895Z,94.76
2019-04-04T01:53:30.891Z,94.87
2019-04-04T01:56:01.478Z,94.92
2019-04-04T01:58:32.055Z,95.27
2019-04-04T02:01:02.733Z,95.49
2019-04-04T02:03:33.349Z,95.66
2019-04-04T02:06:03.935Z,96.05
2019-04-04T02:08:34.508Z,96.22
2019-04-04T02:11:05.931Z,96.16
2019-04-04T02:13:36.656Z,95.87
2019-04-04T02:16:07.601Z,95.84
2019-04-04T02:18:38.077Z,95.84
2019-04-04T02:21:08.595Z,95.80
2019-04-04T02:23:39.011Z,96.00
2019-04-04T02:26:09.534Z,96.22
2019-04-04T02:28:40.685Z,96.17
2019-04-04T02:31:11.653Z,96.14
2019-04-04T02:33:42.176Z,96.25
2019-04-04T02:36:16.392Z,96.33
2019-04-04T02:39:03.204Z,96.35
2019-04-04T02:41:33.766Z,96.46
2019-04-04T02:44:04.475Z,96.64
2019-04-04T02:46:34.947Z,96.76
2019-04-04T02:49:05.467Z,96.86
2019-04-04T02:51:40.209Z,97.01
2019-04-04T02:54:08.191Z,96.92
2019-04-04T02:56:38.721Z,96.94
2019-04-04T02:59:09.172Z,96.95
2019-04-04T03:01:39.723Z,96.94
2019-04-04T03:04:13.510Z,97.08
2019-04-04T03:06:42.524Z,97.14
2019-04-04T03:09:13.029Z,97.16
2019-04-04T03:11:43.983Z,97.17
2019-04-04T03:14:14.734Z,97.17
2019-04-04T03:16:45.365Z,97.13
2019-04-04T03:19:16.161Z,97.19
2019-04-04T03:21:46.670Z,97.18
2019-04-04T03:24:17.176Z,97.10
2019-04-04T03:26:52.300Z,97.07
2019-04-04T03:29:19.971Z,96.99
2019-04-04T03:31:50.536Z,96.89
2019-04-04T03:34:21.057Z,96.81
2019-04-04T03:36:51.519Z,96.79
2019-04-04T03:39:22.035Z,96.55
2019-04-04T03:41:52.514Z,96.53
2019-04-04T03:44:23.041Z,96.55
2019-04-04T03:46:53.727Z,96.72
2019-04-04T03:49:24.768Z,96.81
2019-04-04T03:51:55.346Z,96.85
2019-04-04T03:54:28.211Z,96.82
2019-04-04T03:56:58.709Z,96.82
2019-04-04T03:59:29.605Z,96.78
2019-04-04T04:02:01.364Z,96.69
2019-04-04T04:04:32.072Z,96.64
2019-04-04T04:07:02.546Z,96.60
2019-04-04T04:09:33.052Z,96.54
2019-04-04T04:12:03.568Z,96.49
2019-04-04T04:14:34.020Z,96.54
2019-04-04T04:17:04.503Z,96.53
2019-04-04T04:19:35.037Z,96.53
2019-04-04T04:22:05.472Z,96.51
2019-04-04T04:24:35.943Z,96.49
2019-04-04T04:27:06.441Z,96.50
2019-04-04T04:29:36.908Z,96.44
2019-04-04T04:32:07.372Z,96.42
2019-04-04T04:34:37.908Z,96.28
2019-04-04T04:37:08.395Z,96.22
2019-04-04T04:39:41.402Z,96.33
2019-04-04T04:42:11.172Z,96.47
2019-04-04T04:44:41.627Z,96.54
2019-04-04T04:47:12.026Z,96.47
2019-04-04T04:49:42.571Z,96.47
2019-04-04T04:52:15.086Z,96.51
2019-04-04T04:54:45.214Z,96.68
2019-04-04T04:57:28.841Z,96.75
2019-04-04T04:59:47.945Z,96.74
2019-04-04T05:02:22.135Z,96.74
2019-04-04T05:04:50.662Z,96.83
2019-04-04T05:07:21.245Z,96.81
2019-04-04T05:09:51.666Z,96.79
2019-04-04T05:12:22.289Z,96.79
2019-04-04T05:14:52.681Z,96.61
2019-04-04T05:17:23.164Z,96.56
2019-04-04T05:19:53.658Z,96.48
2019-04-04T05:22:24.139Z,96.45
2019-04-04T05:25:07.425Z,96.46
2019-04-04T05:27:26.875Z,96.19
2019-04-04T05:29:57.279Z,96.03
2019-04-04T05:32:27.794Z,96.03
2019-04-04T05:35:00.874Z,95.99
2019-04-04T05:37:30.513Z,95.95
2019-04-04T05:40:01.006Z,95.88
2019-04-04T05:42:33.008Z,95.93
2019-04-04T05:45:03.864Z,95.94
2019-04-04T05:47:34.394Z,96.02
2019-04-04T05:50:05.817Z,96.06
2019-04-04T05:52:36.268Z,95.87
2019-04-04T05:55:09.959Z,95.51
2019-04-04T05:57:39.701Z,95.63
2019-04-04T06:00:13.556Z,95.56
2019-04-04T06:02:44.126Z,95.43
2019-04-04T06:05:14.828Z,95.40
2019-04-04T06:07:45.296Z,95.57
2019-04-04T06:10:18.102Z,95.65
2019-04-04T06:12:48.041Z,95.66
2019-04-04T06:15:18.592Z,95.71
2019-04-04T06:17:49.120Z,95.47
2019-04-04T06:20:19.601Z,95.38
2019-04-04T06:22:51.992Z,95.02
2019-04-04T06:25:22.391Z,95.09
2019-04-04T06:27:52.883Z,95.06
2019-04-04T06:30:23.338Z,95.14
2019-04-04T06:32:53.841Z,95.19
2019-04-04T06:35:24.255Z,95.16
2019-04-04T06:37:54.773Z,95.03
2019-04-04T06:40:25.298Z,95.11
2019-04-04T06:42:55.753Z,95.17
2019-04-04T06:45:26.262Z,94.97
2019-04-04T06:47:57.513Z,94.97
2019-04-04T06:50:28.621Z,95.11
2019-04-04T06:52:59.063Z,95.00
2019-04-04T06:55:29.607Z,94.97
2019-04-04T06:58:00.019Z,94.72
2019-04-04T07:00:30.479Z,94.68
2019-04-04T07:03:00.927Z,94.39
2019-04-04T07:05:31.365Z,94.39
2019-04-04T07:08:02.552Z,94.23
2019-04-04T07:10:33.024Z,93.84
2019-04-04T07:13:14.820Z,93.23
2019-04-04T07:15:46.194Z,92.88
2019-04-04T07:18:07.946Z,92.71
2019-04-04T07:20:38.407Z,92.74
2019-04-04T07:23:08.951Z,92.12
2019-04-04T07:25:39.808Z,91.75
2019-04-04T07:28:10.711Z,91.31
2019-04-04T07:30:41.270Z,91.35
2019-04-04T07:33:12.708Z,91.26
2019-04-04T07:35:43.385Z,90.98
2019-04-04T07:38:13.882Z,91.02
2019-04-04T07:40:44.383Z,91.15
2019-04-04T07:43:14.879Z,90.48
2019-04-04T07:45:45.392Z,90.34
2019-04-04T07:48:17.846Z,89.96
2019-04-04T07:50:48.032Z,89.85
2019-04-04T07:53:18.497Z,89.41
2019-04-04T07:55:48.995Z,89.49
2019-04-04T07:58:19.496Z,89.76
2019-04-04T08:00:49.944Z,87.91
2019-04-04T08:03:20.447Z,87.07
2019-04-04T08:05:50.965Z,87.47
2019-04-04T08:08:21.430Z,86.88
2019-04-04T08:10:52.005Z,86.33
2019-04-04T08:13:22.477Z,86.39
2019-04-04T08:15:52.916Z,86.57
2019-04-04T08:18:23.423Z,86.48
2019-04-04T08:20:53.871Z,85.65
2019-04-04T08:23:24.337Z,84.62
2019-04-04T08:25:54.834Z,84.68
2019-04-04T08:28:25.279Z,84.27
2019-04-04T08:30:55.805Z,84.76
2019-04-04T08:33:26.272Z,84.86
2019-04-04T08:36:05.808Z,84.62
2019-04-04T08:38:29.016Z,84.30
2019-04-04T08:40:59.520Z,84.44
2019-04-04T08:43:30.009Z,84.55
2019-04-04T08:46:00.537Z,84.18
2019-04-04T08:48:31.069Z,83.71
2019-04-04T08:51:01.583Z,83.27
2019-04-04T08:53:39.771Z,83.09
2019-04-04T08:56:04.236Z,83.21
2019-04-04T08:58:34.731Z,83.18
2019-04-04T09:01:05.509Z,82.79
2019-04-04T09:03:36.013Z,83.91
2019-04-04T09:06:06.482Z,84.33
2019-04-04T09:08:36.948Z,83.53
2019-04-04T09:11:07.537Z,84.28
2019-04-04T09:13:38.132Z,83.43
2019-04-04T09:16:08.676Z,83.35
2019-04-04T09:18:58.288Z,83.41
2019-04-04T09:21:28.922Z,83.82
2019-04-04T09:24:00.826Z,83.39
2019-04-04T09:26:31.575Z,83.04
2019-04-04T09:29:02.048Z,82.19
2019-04-04T09:31:32.560Z,81.29
2019-04-04T09:34:03.052Z,81.25
2019-04-04T09:36:33.569Z,80.61
2019-04-04T09:39:06.523Z,81.30
2019-04-04T09:41:37.017Z,80.80
2019-04-04T09:44:07.495Z,81.16
2019-04-04T09:46:37.873Z,81.45
2019-04-04T09:49:08.401Z,80.89
2019-04-04T09:51:38.854Z,80.43
2019-04-04T09:54:09.310Z,81.26
2019-04-04T09:56:39.848Z,81.43
2019-04-04T09:59:10.334Z,81.28
2019-04-04T10:01:40.818Z,81.39
2019-04-04T10:04:11.319Z,81.35
2019-04-04T10:06:41.785Z,82.20
2019-04-04T10:09:15.964Z,82.71
2019-04-04T10:11:44.573Z,82.72
2019-04-04T10:14:15.164Z,82.68
2019-04-04T10:16:45.690Z,82.17
2019-04-04T10:19:16.190Z,81.53
2019-04-04T10:21:46.664Z,82.16
2019-04-04T10:24:17.135Z,81.51
2019-04-04T10:26:47.690Z,81.78
2019-04-04T10:29:18.136Z,81.32
2019-04-04T10:31:48.655Z,81.50
2019-04-04T10:34:19.089Z,81.48
2019-04-04T10:36:49.575Z,81.20
2019-04-04T10:39:28.773Z,80.40
2019-04-04T10:41:52.330Z,80.91
2019-04-04T10:44:22.821Z,80.56
2019-04-04T10:46:53.265Z,80.18
2019-04-04T10:49:23.777Z,80.16
2019-04-04T10:51:54.278Z,79.53
2019-04-04T10:54:24.744Z,80.15
2019-04-04T10:56:55.236Z,79.74
2019-04-04T10:59:25.768Z,79.68
2019-04-04T11:01:57.449Z,79.40
2019-04-04T11:04:28.554Z,80.21
2019-04-04T11:06:59.124Z,79.35
2019-04-04T11:09:41.280Z,78.57
2019-04-04T11:12:01.922Z,78.55
2019-04-04T11:14:32.372Z,78.83
2019-04-04T11:17:02.890Z,79.35
2019-04-04T11:19:33.398Z,79.73
2019-04-04T11:22:03.900Z,78.77
2019-04-04T11:24:34.354Z,78.74
2019-04-04T11:27:04.957Z,79.29
2019-04-04T11:29:35.465Z,78.92
2019-04-04T11:32:05.942Z,79.15
2019-04-04T11:34:36.471Z,78.67
2019-04-04T11:37:07.016Z,79.21
2019-04-04T11:39:37.512Z,79.46
2019-04-04T11:42:08.046Z,79.03
2019-04-04T11:44:38.517Z,78.69
2019-04-04T11:47:08.980Z,78.78
2019-04-04T11:49:39.421Z,78.71
2019-04-04T11:52:09.950Z,78.57
2019-04-04T11:54:59.370Z,77.50
2019-04-04T11:57:29.828Z,78.10
2019-04-04T12:00:00.451Z,76.55
2019-04-04T12:02:32.680Z,77.94
2019-04-04T12:05:03.645Z,78.28
2019-04-04T12:07:34.252Z,79.45
2019-04-04T12:10:07.719Z,79.66
2019-04-04T12:12:37.660Z,78.69
2019-04-04T12:15:08.807Z,78.85
2019-04-04T12:17:39.346Z,78.49
2019-04-04T12:20:10.247Z,79.44
2019-04-04T12:22:40.783Z,78.08
2019-04-04T12:25:11.346Z,77.87
2019-04-04T12:27:41.886Z,78.75
2019-04-04T12:30:12.840Z,77.52
2019-04-04T12:32:43.424Z,78.36
2019-04-04T12:35:14.023Z,77.69
2019-04-04T12:37:44.564Z,78.13
2019-04-04T12:40:20.781Z,78.32
2019-04-04T12:42:47.988Z,79.12
2019-04-04T12:45:18.689Z,79.25
2019-04-04T12:47:49.295Z,78.24
2019-04-04T12:50:19.860Z,78.08
2019-04-04T12:52:50.401Z,78.57
2019-04-04T12:55:20.954Z,78.35
2019-04-04T12:57:51.481Z,77.76
2019-04-04T13:00:22.045Z,78.54
2019-04-04T13:02:52.624Z,77.54
2019-04-04T13:05:23.127Z,77.64
2019-04-04T13:07:53.583Z,77.88
2019-04-04T13:10:32.941Z,77.31
2019-04-04T13:12:56.297Z,76.76
2019-04-04T13:15:26.833Z,77.37
2019-04-04T13:17:57.381Z,76.84
2019-04-04T13:20:27.970Z,77.30
2019-04-04T13:22:58.492Z,77.16
2019-04-04T13:25:28.943Z,78.04
2019-04-04T13:27:59.447Z,75.94
2019-04-04T13:30:29.914Z,76.27
2019-04-04T13:33:00.393Z,75.07
2019-04-04T13:35:30.873Z,75.25
2019-04-04T13:38:01.374Z,75.85
2019-04-04T13:40:31.886Z,77.10
2019-04-04T13:43:02.396Z,75.19
2019-04-04T13:45:32.893Z,75.03
2019-04-04T13:48:03.412Z,74.14
2019-04-04T13:50:33.922Z,73.74
2019-04-04T13:53:04.437Z,70.42
2019-04-04T13:55:34.945Z,66.06
2019-04-04T13:58:05.483Z,63.29
2019-04-04T14:00:35.980Z,62.88
2019-04-04T14:03:06.484Z,65.85
2019-04-04T14:05:37.179Z,65.83
2019-04-04T14:08:07.650Z,66.22
2019-04-04T14:10:38.155Z,64.97
2019-04-04T14:13:08.920Z,64.57
2019-04-04T14:15:39.433Z,63.47
2019-04-04T14:18:38.153Z,64.83
2019-04-04T14:21:03.695Z,64.07
2019-04-04T14:23:30.460Z,67.13
2019-04-04T14:26:00.839Z,66.89
2019-04-04T14:28:31.344Z,67.18
2019-04-04T14:31:01.885Z,67.56
2019-04-04T14:33:32.414Z,65.01
2019-04-04T14:36:02.884Z,63.52
2019-04-04T14:38:34.921Z,63.30
2019-04-04T14:41:11.223Z,61.93
2019-04-04T14:43:37.632Z,61.42
2019-04-04T14:46:08.136Z,59.94
2019-04-04T14:48:42.132Z,57.17
2019-04-04T14:51:10.866Z,56.71
2019-04-04T14:53:41.473Z,57.94
2019-04-04T14:56:11.979Z,58.84
2019-04-04T14:58:42.439Z,60.66
2019-04-04T15:01:12.979Z,60.17
2019-04-04T15:03:43.471Z,58.05
2019-04-04T15:06:13.993Z,55.79
2019-04-04T15:08:44.425Z,58.63
2019-04-04T15:11:23.881Z,60.85
2019-04-04T15:13:47.138Z,61.08
2019-04-04T15:16:19.550Z,59.13
2019-04-04T15:18:50.037Z,59.05
2019-04-04T15:21:20.591Z,57.30
2019-04-04T15:23:51.183Z,55.23
2019-04-04T15:26:21.743Z,55.36
2019-04-04T15:28:52.221Z,54.58
2019-04-04T15:31:22.786Z,54.79
2019-04-04T15:33:53.280Z,54.21
2019-04-04T15:36:23.797Z,56.05
2019-04-04T15:38:54.360Z,57.88
2019-04-04T15:41:36.300Z,59.04
2019-04-04T15:43:57.068Z,59.08
2019-04-04T15:46:27.702Z,60.53
2019-04-04T15:48:58.266Z,61.01
2019-04-04T15:51:28.779Z,61.47
2019-04-04T15:53:59.292Z,61.23
2019-04-04T15:56:29.768Z,62.22
2019-04-04T15:59:00.253Z,64.42
2019-04-04T16:01:30.800Z,65.63
2019-04-04T16:04:01.193Z,65.83
2019-04-04T16:06:31.667Z,65.95
2019-04-04T16:09:02.132Z,68.39
2019-04-04T16:11:35.401Z,68.95
2019-04-04T16:14:09.499Z,69.43
2019-04-04T16:16:40.101Z,70.45
2019-04-04T16:19:10.972Z,71.37
2019-04-04T16:21:41.436Z,71.49
2019-04-04T16:24:12.043Z,72.24
2019-04-04T16:26:42.551Z,72.75
2019-04-04T16:29:13.057Z,72.92
2019-04-04T16:31:43.562Z,73.03
2019-04-04T16:34:14.055Z,72.82
2019-04-04T16:36:44.465Z,72.04
2019-04-04T16:39:15.019Z,71.94
2019-04-04T16:41:45.500Z,70.46
2019-04-04T16:44:15.989Z,69.58
2019-04-04T16:46:46.546Z,70.19
2019-04-04T16:49:17.135Z,70.85
2019-04-04T16:51:47.682Z,71.35
2019-04-04T16:54:19.101Z,72.69
2019-04-04T16:56:49.790Z,74.00
2019-04-04T16:59:20.280Z,74.76
2019-04-04T17:01:50.872Z,75.52
2019-04-04T17:04:21.324Z,76.17
2019-04-04T17:06:54.555Z,76.81
2019-04-04T17:09:24.245Z,76.92
2019-04-04T17:11:54.776Z,77.67
2019-04-04T17:14:25.322Z,77.86
2019-04-04T17:16:55.964Z,78.17
2019-04-04T17:19:26.476Z,79.19
2019-04-04T17:21:57.227Z,79.67
2019-04-04T17:24:27.813Z,80.28
2019-04-04T17:26:58.292Z,80.92
2019-04-04T17:29:28.798Z,81.49
2019-04-04T17:31:59.509Z,81.88
2019-04-04T17:34:30.023Z,82.52
2019-04-04T17:37:00.541Z,82.74
2019-04-04T17:39:31.458Z,83.08
2019-04-04T17:42:01.932Z,83.56
2019-04-04T17:44:32.950Z,83.97
2019-04-04T17:47:03.719Z,84.44
2019-04-04T17:49:34.302Z,84.31
2019-04-04T17:52:04.785Z,84.60
2019-04-04T17:54:35.311Z,84.79
2019-04-04T17:57:06.385Z,85.50
2019-04-04T17:59:36.972Z,85.60
2019-04-04T18:02:07.515Z,85.83
2019-04-04T18:04:47.767Z,86.44
2019-04-04T18:07:10.228Z,86.75
2019-04-04T18:09:40.724Z,87.02
2019-04-04T18:12:11.201Z,87.20
2019-04-04T18:14:41.803Z,87.25
2019-04-04T18:17:12.342Z,87.28
2019-04-04T18:19:42.957Z,87.52
2019-04-04T18:22:13.437Z,87.86
2019-04-04T18:24:44.020Z,88.08
2019-04-04T18:27:14.510Z,88.07
2019-04-04T18:29:44.933Z,88.05
2019-04-04T18:32:15.505Z,88.20
2019-04-04T18:34:46.238Z,88.52
2019-04-04T18:37:17.180Z,88.55
2019-04-04T18:39:47.934Z,88.62
2019-04-04T18:42:18.416Z,88.79
2019-04-04T18:44:48.926Z,89.10
2019-04-04T18:47:19.492Z,88.96
2019-04-04T18:49:50.107Z,89.06
2019-04-04T18:52:20.595Z,89.29
2019-04-04T18:54:51.367Z,89.20
2019-04-04T18:57:22.063Z,89.19
2019-04-04T18:59:52.551Z,89.13
2019-04-04T19:02:23.173Z,89.23
2019-04-04T19:04:53.683Z,89.59
2019-04-04T19:07:24.162Z,89.85
2019-04-04T19:09:54.817Z,90.12
2019-04-04T19:12:25.377Z,90.32
2019-04-04T19:14:56.004Z,89.89
2019-04-04T19:17:26.630Z,89.61
2019-04-04T19:19:57.123Z,89.49
2019-04-04T19:22:27.660Z,89.55
2019-04-04T19:24:58.244Z,89.34
2019-04-04T19:27:28.722Z,89.27
2019-04-04T19:29:59.384Z,89.60
2019-04-04T19:32:29.927Z,89.56
2019-04-04T19:35:00.420Z,89.37
2019-04-04T19:37:30.939Z,89.44
2019-04-04T19:40:01.515Z,89.33
2019-04-04T19:42:32.019Z,89.53
2019-04-04T19:45:02.570Z,89.63
2019-04-04T19:47:33.120Z,89.94
2019-04-04T19:50:03.580Z,90.00
2019-04-04T19:52:34.069Z,89.84
2019-04-04T19:55:04.718Z,90.15
2019-04-04T19:57:35.180Z,90.32
2019-04-04T20:00:06.639Z,90.36
2019-04-04T20:02:37.320Z,90.45
2019-04-04T20:05:09.658Z,90.87
2019-04-04T20:07:40.120Z,91.23
2019-04-04T20:10:11.055Z,91.39
2019-04-04T20:12:41.533Z,91.47
2019-04-04T20:15:13.655Z,91.28
2019-04-04T20:17:44.186Z,91.21
2019-04-04T20:20:15.196Z,91.50
2019-04-04T20:22:45.692Z,91.86
2019-04-04T20:25:16.286Z,92.16
2019-04-04T20:27:54.637Z,92.41
2019-04-04T20:30:23.538Z,92.71
2019-04-04T20:32:54.041Z,92.69
2019-04-04T20:35:26.859Z,92.72
2019-04-04T20:37:56.959Z,92.51
2019-04-04T20:40:27.601Z,92.28
2019-04-04T20:42:58.287Z,92.46
2019-04-04T20:45:28.854Z,92.57
2019-04-04T20:47:59.525Z,92.37
2019-04-04T20:50:30.146Z,92.40
2019-04-04T20:53:00.846Z,92.49
2019-04-04T20:55:31.414Z,92.66
2019-04-04T20:58:01.926Z,92.53
2019-04-04T21:00:32.534Z,92.91
2019-04-04T21:03:03.086Z,93.01
2019-04-04T21:05:33.608Z,92.63
2019-04-04T21:08:04.206Z,92.86
2019-04-04T21:10:34.739Z,93.19
2019-04-04T21:13:05.266Z,93.38
2019-04-04T21:15:35.920Z,93.34
2019-04-04T21:18:06.473Z,93.33
2019-04-04T21:20:37.011Z,93.30
2019-04-04T21:23:07.619Z,93.24
2019-04-04T21:25:38.187Z,92.95
2019-04-04T21:28:09.653Z,93.25
2019-04-04T21:30:40.200Z,93.60
2019-04-04T21:33:10.643Z,93.64
2019-04-04T21:35:41.333Z,93.69
2019-04-04T21:38:11.814Z,93.91
2019-04-04T21:40:42.307Z,94.05
2019-04-04T21:43:12.904Z,94.04
2019-04-04T21:45:43.373Z,93.89
2019-04-04T21:48:13.858Z,93.84
2019-04-04T21:50:44.637Z,94.03
2019-04-04T21:53:15.127Z,94.18
2019-04-04T21:55:45.584Z,94.28
2019-04-04T21:58:16.095Z,94.23
2019-04-04T22:00:46.607Z,94.36
2019-04-04T22:03:17.103Z,94.58
2019-04-04T22:05:47.711Z,94.54
2019-04-04T22:08:18.234Z,94.46
2019-04-04T22:10:48.790Z,94.32
2019-04-04T22:13:19.382Z,94.51
2019-04-04T22:15:49.895Z,94.71
2019-04-04T22:18:20.378Z,94.84
2019-04-04T22:20:50.926Z,94.94
2019-04-04T22:23:21.451Z,95.08
2019-04-04T22:25:51.946Z,95.44
2019-04-04T22:28:22.513Z,95.59
2019-04-04T22:30:53.041Z,95.76
2019-04-04T22:33:23.582Z,95.89
2019-04-04T22:35:54.246Z,96.04
2019-04-04T22:38:24.734Z,96.23
2019-04-04T22:40:55.242Z,96.26
2019-04-04T22:43:25.921Z,96.25
2019-04-04T22:45:56.485Z,96.17
2019-04-04T22:48:27.019Z,96.11
2019-04-04T22:50:57.564Z,96.11
2019-04-04T22:53:28.174Z,96.20
2019-04-04T22:55:58.641Z,96.20
2019-04-04T22:58:29.254Z,96.22
2019-04-04T23:00:59.734Z,96.26
2019-04-04T23:03:30.271Z,96.27
2019-04-04T23:06:00.808Z,96.12
2019-04-04T23:08:31.331Z,95.88
2019-04-04T23:11:01.812Z,95.71
2019-04-04T23:13:32.359Z,95.89
2019-04-04T23:16:02.884Z,95.96
2019-04-04T23:18:33.345Z,95.93
2019-04-04T23:21:03.901Z,96.12
2019-04-04T23:23:34.465Z,96.33
2019-04-04T23:26:05.027Z,96.37
2019-04-04T23:28:35.593Z,96.52
2019-04-04T23:31:06.099Z,96.66
2019-04-04T23:33:36.559Z,96.85
2019-04-04T23:36:07.128Z,96.93
2019-04-04T23:38:37.617Z,96.83
2019-04-04T23:41:08.107Z,96.78
2019-04-04T23:43:38.646Z,96.95
2019-04-04T23:46:09.122Z,97.00
2019-04-04T23:48:39.688Z,96.99
2019-04-04T23:51:10.203Z,96.75
2019-04-04T23:53:40.727Z,96.89
2019-04-04T23:56:11.201Z,97.09
2019-04-04T23:58:41.763Z,97.25
